sensor_id;sensor_type;location;lat;lon;timestamp;temperature;humidity
13585;DHT22;6863;48.402;9.994;2023-03-23T00:02:27;10.20;93.40
13585;DHT22;6863;48.402;9.994;2023-03-23T00:04:54;10.10;93.50
13585;DHT22;6863;48.402;9.994;2023-03-23T00:07:21;10.10;93.50
13585;DHT22;6863;48.402;9.994;2023-03-23T00:09:50;10.10;93.80
13585;DHT22;6863;48.402;9.994;2023-03-23T00:12:27;10.10;94.20
13585;DHT22;6863;48.402;9.994;2023-03-23T00:15:03;10.10;94.00
13585;DHT22;6863;48.402;9.994;2023-03-23T00:17:31;10.10;94.20
13585;DHT22;6863;48.402;9.994;2023-03-23T00:19:59;10.10;94.20
13585;DHT22;6863;48.402;9.994;2023-03-23T00:22:27;10.10;94.10
13585;DHT22;6863;48.402;9.994;2023-03-23T00:24:53;10.10;94.30
13585;DHT22;6863;48.402;9.994;2023-03-23T00:27:19;10.10;94.30
13585;DHT22;6863;48.402;9.994;2023-03-23T00:29:47;10.10;94.40
13585;DHT22;6863;48.402;9.994;2023-03-23T00:32:14;10.10;94.30
13585;DHT22;6863;48.402;9.994;2023-03-23T00:34:41;10.10;94.40
13585;DHT22;6863;48.402;9.994;2023-03-23T00:37:09;10.10;94.50
13585;DHT22;6863;48.402;9.994;2023-03-23T00:39:35;10.10;94.60
13585;DHT22;6863;48.402;9.994;2023-03-23T00:42:03;10.10;94.60
13585;DHT22;6863;48.402;9.994;2023-03-23T00:44:33;10.10;94.60
13585;DHT22;6863;48.402;9.994;2023-03-23T00:47:00;10.00;94.60
13585;DHT22;6863;48.402;9.994;2023-03-23T00:49:26;10.00;94.80
13585;DHT22;6863;48.402;9.994;2023-03-23T00:51:57;9.90;95.60
13585;DHT22;6863;48.402;9.994;2023-03-23T00:54:24;9.90;95.70
13585;DHT22;6863;48.402;9.994;2023-03-23T00:56:50;9.90;95.70
13585;DHT22;6863;48.402;9.994;2023-03-23T00:59:16;9.90;95.70
13585;DHT22;6863;48.402;9.994;2023-03-23T01:01:42;9.90;95.90
13585;DHT22;6863;48.402;9.994;2023-03-23T01:04:08;9.90;95.90
13585;DHT22;6863;48.402;9.994;2023-03-23T01:06:35;10.00;95.30
13585;DHT22;6863;48.402;9.994;2023-03-23T01:09:08;10.00;95.20
13585;DHT22;6863;48.402;9.994;2023-03-23T01:11:34;10.00;95.30
13585;DHT22;6863;48.402;9.994;2023-03-23T01:14:00;10.00;95.10
13585;DHT22;6863;48.402;9.994;2023-03-23T01:16:26;10.00;95.00
13585;DHT22;6863;48.402;9.994;2023-03-23T01:18:52;10.00;95.10
13585;DHT22;6863;48.402;9.994;2023-03-23T01:21:19;10.00;95.30
13585;DHT22;6863;48.402;9.994;2023-03-23T01:23:45;10.00;95.50
13585;DHT22;6863;48.402;9.994;2023-03-23T01:26:20;10.00;95.40
13585;DHT22;6863;48.402;9.994;2023-03-23T01:28:47;10.00;95.20
13585;DHT22;6863;48.402;9.994;2023-03-23T01:31:18;10.10;95.10
13585;DHT22;6863;48.402;9.994;2023-03-23T01:33:44;10.10;95.10
13585;DHT22;6863;48.402;9.994;2023-03-23T01:36:16;10.00;95.10
13585;DHT22;6863;48.402;9.994;2023-03-23T01:38:44;10.10;95.20
13585;DHT22;6863;48.402;9.994;2023-03-23T01:41:11;10.10;95.20
13585;DHT22;6863;48.402;9.994;2023-03-23T01:43:52;10.10;95.10
13585;DHT22;6863;48.402;9.994;2023-03-23T01:46:18;10.10;95.10
13585;DHT22;6863;48.402;9.994;2023-03-23T01:48:44;10.20;94.80
13585;DHT22;6863;48.402;9.994;2023-03-23T01:51:14;10.20;94.70
13585;DHT22;6863;48.402;9.994;2023-03-23T01:53:48;10.20;94.70
13585;DHT22;6863;48.402;9.994;2023-03-23T01:56:20;10.20;94.80
13585;DHT22;6863;48.402;9.994;2023-03-23T01:58:50;10.20;94.60
13585;DHT22;6863;48.402;9.994;2023-03-23T02:01:16;10.20;94.50
13585;DHT22;6863;48.402;9.994;2023-03-23T02:03:44;10.20;94.30
13585;DHT22;6863;48.402;9.994;2023-03-23T02:06:11;10.30;94.30
13585;DHT22;6863;48.402;9.994;2023-03-23T02:08:38;10.30;94.30
13585;DHT22;6863;48.402;9.994;2023-03-23T02:11:17;10.30;94.40
13585;DHT22;6863;48.402;9.994;2023-03-23T02:13:44;10.20;94.40
13585;DHT22;6863;48.402;9.994;2023-03-23T02:19:07;10.30;94.40
13585;DHT22;6863;48.402;9.994;2023-03-23T02:21:43;10.30;94.10
13585;DHT22;6863;48.402;9.994;2023-03-23T02:30:32;10.20;94.10
13585;DHT22;6863;48.402;9.994;2023-03-23T02:35:54;10.30;94.20
13585;DHT22;6863;48.402;9.994;2023-03-23T02:39:01;10.30;94.20
13585;DHT22;6863;48.402;9.994;2023-03-23T02:41:20;10.20;94.10
13585;DHT22;6863;48.402;9.994;2023-03-23T02:43:49;10.30;94.10
13585;DHT22;6863;48.402;9.994;2023-03-23T02:46:15;10.30;94.00
13585;DHT22;6863;48.402;9.994;2023-03-23T02:48:42;10.30;94.00
13585;DHT22;6863;48.402;9.994;2023-03-23T02:51:10;10.30;94.20
13585;DHT22;6863;48.402;9.994;2023-03-23T02:53:39;10.20;94.30
13585;DHT22;6863;48.402;9.994;2023-03-23T02:56:07;10.20;94.40
13585;DHT22;6863;48.402;9.994;2023-03-23T02:58:35;10.20;94.40
13585;DHT22;6863;48.402;9.994;2023-03-23T03:01:15;10.30;94.40
13585;DHT22;6863;48.402;9.994;2023-03-23T03:03:42;10.30;94.40
13585;DHT22;6863;48.402;9.994;2023-03-23T03:08:59;10.30;94.30
13585;DHT22;6863;48.402;9.994;2023-03-23T03:11:28;10.30;94.30
13585;DHT22;6863;48.402;9.994;2023-03-23T03:14:08;10.20;94.60
13585;DHT22;6863;48.402;9.994;2023-03-23T03:16:40;10.20;94.80
13585;DHT22;6863;48.402;9.994;2023-03-23T03:21:44;10.20;95.00
13585;DHT22;6863;48.402;9.994;2023-03-23T03:24:15;10.20;94.90
13585;DHT22;6863;48.402;9.994;2023-03-23T03:26:45;10.20;95.00
13585;DHT22;6863;48.402;9.994;2023-03-23T03:29:14;10.20;95.00
13585;DHT22;6863;48.402;9.994;2023-03-23T03:31:43;10.20;95.20
13585;DHT22;6863;48.402;9.994;2023-03-23T03:34:14;10.20;95.30
13585;DHT22;6863;48.402;9.994;2023-03-23T03:36:47;10.30;95.40
13585;DHT22;6863;48.402;9.994;2023-03-23T03:39:14;10.20;95.80
13585;DHT22;6863;48.402;9.994;2023-03-23T03:41:42;10.10;96.00
13585;DHT22;6863;48.402;9.994;2023-03-23T03:44:08;10.10;95.80
13585;DHT22;6863;48.402;9.994;2023-03-23T03:46:34;10.00;96.10
13585;DHT22;6863;48.402;9.994;2023-03-23T03:49:02;10.00;96.50
13585;DHT22;6863;48.402;9.994;2023-03-23T03:51:29;9.90;97.40
13585;DHT22;6863;48.402;9.994;2023-03-23T03:53:55;9.80;97.60
13585;DHT22;6863;48.402;9.994;2023-03-23T03:56:22;9.80;98.00
13585;DHT22;6863;48.402;9.994;2023-03-23T03:58:49;9.70;98.20
13585;DHT22;6863;48.402;9.994;2023-03-23T04:01:17;9.70;98.50
13585;DHT22;6863;48.402;9.994;2023-03-23T04:03:44;9.70;98.90
13585;DHT22;6863;48.402;9.994;2023-03-23T04:06:09;9.70;98.90
13585;DHT22;6863;48.402;9.994;2023-03-23T04:08:36;9.80;98.60
13585;DHT22;6863;48.402;9.994;2023-03-23T04:11:03;9.80;98.60
13585;DHT22;6863;48.402;9.994;2023-03-23T04:13:29;9.70;98.80
13585;DHT22;6863;48.402;9.994;2023-03-23T04:15:55;9.70;99.00
13585;DHT22;6863;48.402;9.994;2023-03-23T04:18:21;9.70;99.10
13585;DHT22;6863;48.402;9.994;2023-03-23T04:20:48;9.70;99.10
13585;DHT22;6863;48.402;9.994;2023-03-23T04:23:18;9.70;99.00
13585;DHT22;6863;48.402;9.994;2023-03-23T04:25:49;9.70;98.90
13585;DHT22;6863;48.402;9.994;2023-03-23T04:28:16;9.70;98.90
13585;DHT22;6863;48.402;9.994;2023-03-23T04:30:42;9.70;98.90
13585;DHT22;6863;48.402;9.994;2023-03-23T04:33:09;9.70;98.80
13585;DHT22;6863;48.402;9.994;2023-03-23T04:35:40;9.70;98.70
13585;DHT22;6863;48.402;9.994;2023-03-23T04:38:07;9.70;98.80
13585;DHT22;6863;48.402;9.994;2023-03-23T04:40:36;9.70;98.80
13585;DHT22;6863;48.402;9.994;2023-03-23T04:43:02;9.80;98.70
13585;DHT22;6863;48.402;9.994;2023-03-23T04:45:32;9.70;98.70
13585;DHT22;6863;48.402;9.994;2023-03-23T04:47:58;9.70;98.80
13585;DHT22;6863;48.402;9.994;2023-03-23T04:50:28;9.70;98.70
13585;DHT22;6863;48.402;9.994;2023-03-23T04:52:56;9.80;98.70
13585;DHT22;6863;48.402;9.994;2023-03-23T04:55:23;9.80;98.60
13585;DHT22;6863;48.402;9.994;2023-03-23T04:57:49;9.90;98.60
13585;DHT22;6863;48.402;9.994;2023-03-23T05:00:15;9.90;98.50
13585;DHT22;6863;48.402;9.994;2023-03-23T05:02:43;9.90;98.50
13585;DHT22;6863;48.402;9.994;2023-03-23T05:05:11;9.90;98.80
13585;DHT22;6863;48.402;9.994;2023-03-23T05:07:38;9.90;98.50
13585;DHT22;6863;48.402;9.994;2023-03-23T05:10:04;9.90;98.50
13585;DHT22;6863;48.402;9.994;2023-03-23T05:12:30;10.00;98.00
13585;DHT22;6863;48.402;9.994;2023-03-23T05:14:57;10.00;98.00
13585;DHT22;6863;48.402;9.994;2023-03-23T05:17:23;10.00;98.00
13585;DHT22;6863;48.402;9.994;2023-03-23T05:19:50;10.00;97.90
13585;DHT22;6863;48.402;9.994;2023-03-23T05:22:16;10.10;98.00
13585;DHT22;6863;48.402;9.994;2023-03-23T05:24:42;10.10;98.00
13585;DHT22;6863;48.402;9.994;2023-03-23T05:27:11;10.20;98.00
13585;DHT22;6863;48.402;9.994;2023-03-23T05:29:37;10.20;98.00
13585;DHT22;6863;48.402;9.994;2023-03-23T05:32:07;10.20;98.00
13585;DHT22;6863;48.402;9.994;2023-03-23T05:34:34;10.20;97.90
13585;DHT22;6863;48.402;9.994;2023-03-23T05:37:03;10.20;97.90
13585;DHT22;6863;48.402;9.994;2023-03-23T05:39:30;10.30;97.80
13585;DHT22;6863;48.402;9.994;2023-03-23T05:41:56;10.30;97.60
13585;DHT22;6863;48.402;9.994;2023-03-23T05:44:23;10.30;97.50
13585;DHT22;6863;48.402;9.994;2023-03-23T05:46:49;10.40;97.50
13585;DHT22;6863;48.402;9.994;2023-03-23T05:49:16;10.50;97.50
13585;DHT22;6863;48.402;9.994;2023-03-23T05:51:45;10.60;97.40
13585;DHT22;6863;48.402;9.994;2023-03-23T05:54:15;10.60;97.00
13585;DHT22;6863;48.402;9.994;2023-03-23T05:56:41;10.70;96.70
13585;DHT22;6863;48.402;9.994;2023-03-23T05:59:08;10.90;96.20
13585;DHT22;6863;48.402;9.994;2023-03-23T06:01:35;11.10;95.80
13585;DHT22;6863;48.402;9.994;2023-03-23T06:04:01;11.20;95.40
13585;DHT22;6863;48.402;9.994;2023-03-23T06:06:27;11.30;95.10
13585;DHT22;6863;48.402;9.994;2023-03-23T06:08:55;11.30;95.00
13585;DHT22;6863;48.402;9.994;2023-03-23T06:11:21;11.40;94.90
13585;DHT22;6863;48.402;9.994;2023-03-23T06:13:46;11.40;94.90
13585;DHT22;6863;48.402;9.994;2023-03-23T06:16:14;11.40;94.90
13585;DHT22;6863;48.402;9.994;2023-03-23T06:18:40;11.40;94.90
13585;DHT22;6863;48.402;9.994;2023-03-23T06:21:06;11.50;94.90
13585;DHT22;6863;48.402;9.994;2023-03-23T06:23:32;11.50;94.90
13585;DHT22;6863;48.402;9.994;2023-03-23T06:26:00;11.50;95.00
13585;DHT22;6863;48.402;9.994;2023-03-23T06:28:26;11.40;95.10
13585;DHT22;6863;48.402;9.994;2023-03-23T06:30:52;11.50;95.10
13585;DHT22;6863;48.402;9.994;2023-03-23T06:33:19;11.50;95.20
13585;DHT22;6863;48.402;9.994;2023-03-23T06:35:45;11.40;95.30
13585;DHT22;6863;48.402;9.994;2023-03-23T06:38:10;11.50;95.60
13585;DHT22;6863;48.402;9.994;2023-03-23T06:40:37;11.40;95.60
13585;DHT22;6863;48.402;9.994;2023-03-23T06:43:03;11.40;95.50
13585;DHT22;6863;48.402;9.994;2023-03-23T06:45:30;11.40;95.60
13585;DHT22;6863;48.402;9.994;2023-03-23T06:47:57;11.50;95.70
13585;DHT22;6863;48.402;9.994;2023-03-23T06:50:23;11.50;95.30
13585;DHT22;6863;48.402;9.994;2023-03-23T06:52:50;11.60;95.30
13585;DHT22;6863;48.402;9.994;2023-03-23T06:55:17;11.60;95.40
13585;DHT22;6863;48.402;9.994;2023-03-23T06:57:43;11.80;95.40
13585;DHT22;6863;48.402;9.994;2023-03-23T07:00:12;11.80;95.00
13585;DHT22;6863;48.402;9.994;2023-03-23T07:02:42;12.00;94.90
13585;DHT22;6863;48.402;9.994;2023-03-23T07:05:08;12.20;94.60
13585;DHT22;6863;48.402;9.994;2023-03-23T07:07:38;12.30;94.30
13585;DHT22;6863;48.402;9.994;2023-03-23T07:10:05;12.50;94.00
13585;DHT22;6863;48.402;9.994;2023-03-23T07:12:31;12.60;93.80
13585;DHT22;6863;48.402;9.994;2023-03-23T07:14:56;12.70;93.50
13585;DHT22;6863;48.402;9.994;2023-03-23T07:17:22;12.60;93.10
13585;DHT22;6863;48.402;9.994;2023-03-23T07:19:48;12.60;93.10
13585;DHT22;6863;48.402;9.994;2023-03-23T07:22:13;12.60;92.80
13585;DHT22;6863;48.402;9.994;2023-03-23T07:24:39;12.70;92.60
13585;DHT22;6863;48.402;9.994;2023-03-23T07:27:05;12.70;92.30
13585;DHT22;6863;48.402;9.994;2023-03-23T07:29:30;12.70;92.10
13585;DHT22;6863;48.402;9.994;2023-03-23T07:31:56;12.80;92.10
13585;DHT22;6863;48.402;9.994;2023-03-23T07:34:22;13.00;91.80
13585;DHT22;6863;48.402;9.994;2023-03-23T07:36:48;13.00;91.90
13585;DHT22;6863;48.402;9.994;2023-03-23T07:39:14;13.10;91.90
13585;DHT22;6863;48.402;9.994;2023-03-23T07:41:39;13.30;91.60
13585;DHT22;6863;48.402;9.994;2023-03-23T07:44:05;13.50;91.30
13585;DHT22;6863;48.402;9.994;2023-03-23T07:46:32;13.70;90.90
13585;DHT22;6863;48.402;9.994;2023-03-23T07:48:58;13.90;90.50
13585;DHT22;6863;48.402;9.994;2023-03-23T07:51:24;13.90;90.30
13585;DHT22;6863;48.402;9.994;2023-03-23T07:53:53;13.90;90.20
13585;DHT22;6863;48.402;9.994;2023-03-23T07:56:20;14.00;90.00
13585;DHT22;6863;48.402;9.994;2023-03-23T07:58:46;14.00;89.40
13585;DHT22;6863;48.402;9.994;2023-03-23T08:01:12;14.00;88.70
13585;DHT22;6863;48.402;9.994;2023-03-23T08:03:39;14.00;87.80
13585;DHT22;6863;48.402;9.994;2023-03-23T08:06:05;13.90;87.50
13585;DHT22;6863;48.402;9.994;2023-03-23T08:08:31;13.80;87.30
13585;DHT22;6863;48.402;9.994;2023-03-23T08:10:58;13.90;87.30
13585;DHT22;6863;48.402;9.994;2023-03-23T08:13:23;13.90;87.20
13585;DHT22;6863;48.402;9.994;2023-03-23T08:15:50;13.80;86.50
13585;DHT22;6863;48.402;9.994;2023-03-23T08:18:17;13.90;86.30
13585;DHT22;6863;48.402;9.994;2023-03-23T08:20:43;14.00;85.90
13585;DHT22;6863;48.402;9.994;2023-03-23T08:23:10;14.00;85.30
13585;DHT22;6863;48.402;9.994;2023-03-23T08:25:36;14.00;85.10
13585;DHT22;6863;48.402;9.994;2023-03-23T08:28:02;14.00;85.10
13585;DHT22;6863;48.402;9.994;2023-03-23T08:30:29;13.90;85.30
13585;DHT22;6863;48.402;9.994;2023-03-23T08:32:58;14.00;85.30
13585;DHT22;6863;48.402;9.994;2023-03-23T08:35:25;14.10;85.30
13585;DHT22;6863;48.402;9.994;2023-03-23T08:37:51;14.20;85.20
13585;DHT22;6863;48.402;9.994;2023-03-23T08:40:19;14.40;85.00
13585;DHT22;6863;48.402;9.994;2023-03-23T08:42:46;14.30;84.90
13585;DHT22;6863;48.402;9.994;2023-03-23T08:45:15;14.10;85.20
13585;DHT22;6863;48.402;9.994;2023-03-23T08:47:42;14.20;85.20
13585;DHT22;6863;48.402;9.994;2023-03-23T08:50:11;14.30;85.00
13585;DHT22;6863;48.402;9.994;2023-03-23T08:52:37;14.20;85.40
13585;DHT22;6863;48.402;9.994;2023-03-23T08:55:05;14.20;85.10
13585;DHT22;6863;48.402;9.994;2023-03-23T08:57:30;14.10;85.50
13585;DHT22;6863;48.402;9.994;2023-03-23T08:59:56;14.10;86.00
13585;DHT22;6863;48.402;9.994;2023-03-23T09:02:28;14.00;86.10
13585;DHT22;6863;48.402;9.994;2023-03-23T09:04:56;14.20;86.20
13585;DHT22;6863;48.402;9.994;2023-03-23T09:07:22;14.30;85.80
13585;DHT22;6863;48.402;9.994;2023-03-23T09:09:49;14.50;85.60
13585;DHT22;6863;48.402;9.994;2023-03-23T09:12:14;14.70;85.20
13585;DHT22;6863;48.402;9.994;2023-03-23T09:14:40;14.80;84.50
13585;DHT22;6863;48.402;9.994;2023-03-23T09:17:06;15.00;84.30
13585;DHT22;6863;48.402;9.994;2023-03-23T09:19:33;15.20;83.20
13585;DHT22;6863;48.402;9.994;2023-03-23T09:21:59;15.20;83.80
13585;DHT22;6863;48.402;9.994;2023-03-23T09:24:25;15.20;82.70
13585;DHT22;6863;48.402;9.994;2023-03-23T09:29:29;15.30;82.20
13585;DHT22;6863;48.402;9.994;2023-03-23T09:31:54;15.40;81.90
13585;DHT22;6863;48.402;9.994;2023-03-23T09:34:21;15.30;82.00
13585;DHT22;6863;48.402;9.994;2023-03-23T09:36:47;15.20;82.70
13585;DHT22;6863;48.402;9.994;2023-03-23T09:39:13;15.10;83.00
13585;DHT22;6863;48.402;9.994;2023-03-23T09:42:04;15.00;83.00
13585;DHT22;6863;48.402;9.994;2023-03-23T09:50:24;14.80;84.70
13585;DHT22;6863;48.402;9.994;2023-03-23T09:52:58;14.70;84.90
13585;DHT22;6863;48.402;9.994;2023-03-23T09:55:24;14.70;85.20
13585;DHT22;6863;48.402;9.994;2023-03-23T09:58:18;14.80;84.90
13585;DHT22;6863;48.402;9.994;2023-03-23T10:01:06;15.10;84.10
13585;DHT22;6863;48.402;9.994;2023-03-23T10:03:40;15.40;82.80
13585;DHT22;6863;48.402;9.994;2023-03-23T10:06:12;15.50;82.10
13585;DHT22;6863;48.402;9.994;2023-03-23T10:08:50;15.70;81.30
13585;DHT22;6863;48.402;9.994;2023-03-23T10:17:13;15.80;81.00
13585;DHT22;6863;48.402;9.994;2023-03-23T10:22:37;15.80;81.00
13585;DHT22;6863;48.402;9.994;2023-03-23T10:30:43;16.20;78.80
13585;DHT22;6863;48.402;9.994;2023-03-23T10:33:20;16.60;78.30
13585;DHT22;6863;48.402;9.994;2023-03-23T10:38:26;18.30;74.40
13585;DHT22;6863;48.402;9.994;2023-03-23T10:40:58;19.30;70.00
13585;DHT22;6863;48.402;9.994;2023-03-23T10:43:24;19.50;67.00
13585;DHT22;6863;48.402;9.994;2023-03-23T10:48:31;19.10;67.50
13585;DHT22;6863;48.402;9.994;2023-03-23T10:51:00;18.90;66.90
13585;DHT22;6863;48.402;9.994;2023-03-23T10:53:44;18.40;67.00
13585;DHT22;6863;48.402;9.994;2023-03-23T10:58:49;18.20;67.80
13585;DHT22;6863;48.402;9.994;2023-03-23T11:01:18;18.50;67.10
13585;DHT22;6863;48.402;9.994;2023-03-23T11:03:47;18.30;67.20
13585;DHT22;6863;48.402;9.994;2023-03-23T11:06:22;18.10;68.10
13585;DHT22;6863;48.402;9.994;2023-03-23T11:09:12;18.20;68.30
13585;DHT22;6863;48.402;9.994;2023-03-23T11:11:41;17.90;69.00
13585;DHT22;6863;48.402;9.994;2023-03-23T11:14:30;17.80;69.50
13585;DHT22;6863;48.402;9.994;2023-03-23T11:17:21;18.10;69.10
13585;DHT22;6863;48.402;9.994;2023-03-23T11:19:47;18.20;68.20
13585;DHT22;6863;48.402;9.994;2023-03-23T11:22:26;18.40;68.40
13585;DHT22;6863;48.402;9.994;2023-03-23T11:24:54;18.50;67.60
13585;DHT22;6863;48.402;9.994;2023-03-23T11:27:21;18.30;67.30
13585;DHT22;6863;48.402;9.994;2023-03-23T11:29:54;18.20;68.50
13585;DHT22;6863;48.402;9.994;2023-03-23T11:32:27;18.10;67.70
13585;DHT22;6863;48.402;9.994;2023-03-23T11:35:05;18.10;67.40
13585;DHT22;6863;48.402;9.994;2023-03-23T11:37:41;17.80;69.00
13585;DHT22;6863;48.402;9.994;2023-03-23T11:40:18;17.50;70.10
13585;DHT22;6863;48.402;9.994;2023-03-23T11:45:34;17.10;68.80
13585;DHT22;6863;48.402;9.994;2023-03-23T11:48:20;17.10;68.60
13585;DHT22;6863;48.402;9.994;2023-03-23T11:50:52;17.30;67.60
13585;DHT22;6863;48.402;9.994;2023-03-23T11:53:34;17.30;67.50
13585;DHT22;6863;48.402;9.994;2023-03-23T11:56:24;17.30;67.80
13585;DHT22;6863;48.402;9.994;2023-03-23T11:58:54;17.30;69.30
13585;DHT22;6863;48.402;9.994;2023-03-23T12:01:56;17.40;69.50
13585;DHT22;6863;48.402;9.994;2023-03-23T12:04:39;17.60;68.80
13585;DHT22;6863;48.402;9.994;2023-03-23T12:07:14;17.80;68.60
13585;DHT22;6863;48.402;9.994;2023-03-23T12:10:10;18.00;67.60
13585;DHT22;6863;48.402;9.994;2023-03-23T12:15:32;18.30;66.60
13585;DHT22;6863;48.402;9.994;2023-03-23T12:24:00;18.30;67.10
13585;DHT22;6863;48.402;9.994;2023-03-23T12:26:31;18.60;67.50
13585;DHT22;6863;48.402;9.994;2023-03-23T12:29:19;18.40;67.20
13585;DHT22;6863;48.402;9.994;2023-03-23T12:32:02;18.50;67.90
13585;DHT22;6863;48.402;9.994;2023-03-23T12:34:46;18.60;67.40
13585;DHT22;6863;48.402;9.994;2023-03-23T12:43:24;19.30;66.70
13585;DHT22;6863;48.402;9.994;2023-03-23T12:48:39;19.50;65.40
13585;DHT22;6863;48.402;9.994;2023-03-23T12:59:54;18.80;65.60
13585;DHT22;6863;48.402;9.994;2023-03-23T13:04:51;19.00;63.00
13585;DHT22;6863;48.402;9.994;2023-03-23T13:07:23;18.90;62.30
13585;DHT22;6863;48.402;9.994;2023-03-23T13:12:40;18.50;62.70
13585;DHT22;6863;48.402;9.994;2023-03-23T13:15:40;18.60;63.10
13585;DHT22;6863;48.402;9.994;2023-03-23T13:18:20;18.80;62.90
13585;DHT22;6863;48.402;9.994;2023-03-23T13:21:18;18.40;63.80
13585;DHT22;6863;48.402;9.994;2023-03-23T13:24:08;18.40;64.70
13585;DHT22;6863;48.402;9.994;2023-03-23T13:26:40;18.20;65.30
13585;DHT22;6863;48.402;9.994;2023-03-23T13:29:13;18.00;66.50
13585;DHT22;6863;48.402;9.994;2023-03-23T13:31:41;18.00;67.00
13585;DHT22;6863;48.402;9.994;2023-03-23T13:36:56;18.00;66.60
13585;DHT22;6863;48.402;9.994;2023-03-23T13:39:26;17.80;67.00
13585;DHT22;6863;48.402;9.994;2023-03-23T13:47:36;17.20;68.70
13585;DHT22;6863;48.402;9.994;2023-03-23T13:57:58;17.20;69.10
13585;DHT22;6863;48.402;9.994;2023-03-23T14:11:29;17.20;71.00
13585;DHT22;6863;48.402;9.994;2023-03-23T14:14:01;17.20;70.50
13585;DHT22;6863;48.402;9.994;2023-03-23T14:16:50;17.30;70.90
13585;DHT22;6863;48.402;9.994;2023-03-23T14:19:29;17.50;69.90
13585;DHT22;6863;48.402;9.994;2023-03-23T14:21:56;17.50;69.70
13585;DHT22;6863;48.402;9.994;2023-03-23T14:24:31;17.60;69.90
13585;DHT22;6863;48.402;9.994;2023-03-23T14:27:23;17.80;69.30
13585;DHT22;6863;48.402;9.994;2023-03-23T14:30:15;17.80;69.10
13585;DHT22;6863;48.402;9.994;2023-03-23T14:32:42;17.70;67.90
13585;DHT22;6863;48.402;9.994;2023-03-23T14:35:28;17.60;68.30
13585;DHT22;6863;48.402;9.994;2023-03-23T14:37:55;17.70;68.30
13585;DHT22;6863;48.402;9.994;2023-03-23T14:40:21;17.80;68.10
13585;DHT22;6863;48.402;9.994;2023-03-23T14:42:47;17.90;68.00
13585;DHT22;6863;48.402;9.994;2023-03-23T14:45:17;18.10;67.50
13585;DHT22;6863;48.402;9.994;2023-03-23T14:47:56;18.00;67.90
13585;DHT22;6863;48.402;9.994;2023-03-23T14:50:40;18.10;67.80
13585;DHT22;6863;48.402;9.994;2023-03-23T14:55:53;17.90;68.00
13585;DHT22;6863;48.402;9.994;2023-03-23T14:58:21;17.70;68.40
13585;DHT22;6863;48.402;9.994;2023-03-23T15:01:02;17.50;69.00
13585;DHT22;6863;48.402;9.994;2023-03-23T15:03:34;17.50;69.70
13585;DHT22;6863;48.402;9.994;2023-03-23T15:06:06;17.20;70.10
13585;DHT22;6863;48.402;9.994;2023-03-23T15:08:35;17.00;71.10
13585;DHT22;6863;48.402;9.994;2023-03-23T15:13:48;16.80;72.00
13585;DHT22;6863;48.402;9.994;2023-03-23T15:16:25;16.80;71.90
13585;DHT22;6863;48.402;9.994;2023-03-23T15:18:58;16.70;72.00
13585;DHT22;6863;48.402;9.994;2023-03-23T15:21:29;16.60;72.20
13585;DHT22;6863;48.402;9.994;2023-03-23T15:23:55;16.60;72.70
13585;DHT22;6863;48.402;9.994;2023-03-23T15:26:33;16.70;72.90
13585;DHT22;6863;48.402;9.994;2023-03-23T15:29:20;16.60;72.60
13585;DHT22;6863;48.402;9.994;2023-03-23T15:31:52;16.60;73.30
13585;DHT22;6863;48.402;9.994;2023-03-23T15:34:24;16.60;73.20
13585;DHT22;6863;48.402;9.994;2023-03-23T15:36:58;16.50;72.90
13585;DHT22;6863;48.402;9.994;2023-03-23T15:39:25;16.40;73.10
13585;DHT22;6863;48.402;9.994;2023-03-23T15:41:52;16.40;73.40
13585;DHT22;6863;48.402;9.994;2023-03-23T15:44:29;16.30;73.60
13585;DHT22;6863;48.402;9.994;2023-03-23T15:47:16;16.30;74.00
13585;DHT22;6863;48.402;9.994;2023-03-23T15:49:44;16.30;74.30
13585;DHT22;6863;48.402;9.994;2023-03-23T15:52:11;16.30;74.60
13585;DHT22;6863;48.402;9.994;2023-03-23T15:54:37;16.20;74.90
13585;DHT22;6863;48.402;9.994;2023-03-23T15:57:03;16.20;75.30
13585;DHT22;6863;48.402;9.994;2023-03-23T15:59:28;16.20;75.30
13585;DHT22;6863;48.402;9.994;2023-03-23T16:01:54;16.20;75.50
13585;DHT22;6863;48.402;9.994;2023-03-23T16:04:20;16.10;75.70
13585;DHT22;6863;48.402;9.994;2023-03-23T16:06:46;16.10;76.00
13585;DHT22;6863;48.402;9.994;2023-03-23T16:09:17;16.10;76.30
13585;DHT22;6863;48.402;9.994;2023-03-23T16:11:43;16.00;76.30
13585;DHT22;6863;48.402;9.994;2023-03-23T16:14:09;15.90;76.50
13585;DHT22;6863;48.402;9.994;2023-03-23T16:16:42;15.90;76.70
13585;DHT22;6863;48.402;9.994;2023-03-23T16:19:11;15.90;77.00
13585;DHT22;6863;48.402;9.994;2023-03-23T16:21:37;15.90;76.90
13585;DHT22;6863;48.402;9.994;2023-03-23T16:24:03;15.90;76.90
13585;DHT22;6863;48.402;9.994;2023-03-23T16:26:28;15.80;77.30
13585;DHT22;6863;48.402;9.994;2023-03-23T16:28:54;15.80;77.50
13585;DHT22;6863;48.402;9.994;2023-03-23T16:31:20;15.80;78.00
13585;DHT22;6863;48.402;9.994;2023-03-23T16:33:46;15.80;78.50
13585;DHT22;6863;48.402;9.994;2023-03-23T16:36:15;15.80;79.00
13585;DHT22;6863;48.402;9.994;2023-03-23T16:38:41;15.70;79.30
13585;DHT22;6863;48.402;9.994;2023-03-23T16:41:07;15.70;79.90
13585;DHT22;6863;48.402;9.994;2023-03-23T16:43:33;15.70;80.40
13585;DHT22;6863;48.402;9.994;2023-03-23T16:48:39;15.70;81.50
13585;DHT22;6863;48.402;9.994;2023-03-23T16:51:05;15.60;81.90
13585;DHT22;6863;48.402;9.994;2023-03-23T16:53:31;15.60;82.50
13585;DHT22;6863;48.402;9.994;2023-03-23T16:55:57;15.50;83.00
13585;DHT22;6863;48.402;9.994;2023-03-23T16:58:22;15.50;83.30
13585;DHT22;6863;48.402;9.994;2023-03-23T17:00:49;15.50;83.80
13585;DHT22;6863;48.402;9.994;2023-03-23T17:03:17;15.50;84.20
13585;DHT22;6863;48.402;9.994;2023-03-23T17:05:43;15.40;84.30
13585;DHT22;6863;48.402;9.994;2023-03-23T17:08:09;15.40;84.40
13585;DHT22;6863;48.402;9.994;2023-03-23T17:10:37;15.40;84.50
13585;DHT22;6863;48.402;9.994;2023-03-23T17:13:03;15.40;84.60
13585;DHT22;6863;48.402;9.994;2023-03-23T17:15:29;15.40;84.90
13585;DHT22;6863;48.402;9.994;2023-03-23T17:17:54;15.30;85.00
13585;DHT22;6863;48.402;9.994;2023-03-23T17:20:20;15.20;85.20
13585;DHT22;6863;48.402;9.994;2023-03-23T17:22:46;15.20;85.60
13585;DHT22;6863;48.402;9.994;2023-03-23T17:25:12;15.20;85.80
13585;DHT22;6863;48.402;9.994;2023-03-23T17:27:38;15.20;85.90
13585;DHT22;6863;48.402;9.994;2023-03-23T17:30:06;15.20;86.10
13585;DHT22;6863;48.402;9.994;2023-03-23T17:32:32;15.10;86.30
13585;DHT22;6863;48.402;9.994;2023-03-23T17:34:58;15.10;86.60
13585;DHT22;6863;48.402;9.994;2023-03-23T17:37:23;15.10;86.80
13585;DHT22;6863;48.402;9.994;2023-03-23T17:39:50;15.10;87.20
13585;DHT22;6863;48.402;9.994;2023-03-23T17:42:15;15.00;87.30
13585;DHT22;6863;48.402;9.994;2023-03-23T17:44:43;15.00;87.80
13585;DHT22;6863;48.402;9.994;2023-03-23T17:47:13;15.00;88.10
13585;DHT22;6863;48.402;9.994;2023-03-23T17:49:38;14.90;88.40
13585;DHT22;6863;48.402;9.994;2023-03-23T17:52:04;14.90;88.40
13585;DHT22;6863;48.402;9.994;2023-03-23T17:54:30;14.90;89.40
13585;DHT22;6863;48.402;9.994;2023-03-23T17:56:56;14.80;89.00
13585;DHT22;6863;48.402;9.994;2023-03-23T17:59:24;14.80;89.40
13585;DHT22;6863;48.402;9.994;2023-03-23T18:01:51;14.80;89.50